sensor_id;sensor_type;location;lat;lon;timestamp;temperature;humidity
18412;DHT22;27097;51.738;19.472;2023-02-15T00:01:29;19.90;71.60
18412;DHT22;27097;51.738;19.472;2023-02-15T00:03:57;19.90;71.80
18412;DHT22;27097;51.738;19.472;2023-02-15T00:06:24;19.80;72.00
18412;DHT22;27097;51.738;19.472;2023-02-15T00:08:53;19.80;71.50
18412;DHT22;27097;51.738;19.472;2023-02-15T00:11:20;19.90;71.00
18412;DHT22;27097;51.738;19.472;2023-02-15T00:14:05;19.90;71.50
18412;DHT22;27097;51.738;19.472;2023-02-15T00:16:33;19.90;71.50
18412;DHT22;27097;51.738;19.472;2023-02-15T00:19:01;19.90;71.40
18412;DHT22;27097;51.738;19.472;2023-02-15T00:21:28;19.90;71.60
18412;DHT22;27097;51.738;19.472;2023-02-15T00:23:56;19.90;71.30
18412;DHT22;27097;51.738;19.472;2023-02-15T00:26:23;19.90;71.40
18412;DHT22;27097;51.738;19.472;2023-02-15T00:28:51;19.90;71.10
18412;DHT22;27097;51.738;19.472;2023-02-15T00:31:18;19.80;70.80
18412;DHT22;27097;51.738;19.472;2023-02-15T00:33:44;19.80;67.00
18412;DHT22;27097;51.738;19.472;2023-02-15T00:36:13;19.80;67.00
18412;DHT22;27097;51.738;19.472;2023-02-15T00:38:40;19.80;67.40
18412;DHT22;27097;51.738;19.472;2023-02-15T00:41:08;19.80;67.00
18412;DHT22;27097;51.738;19.472;2023-02-15T00:43:36;19.80;66.80
18412;DHT22;27097;51.738;19.472;2023-02-15T00:46:04;19.80;65.70
18412;DHT22;27097;51.738;19.472;2023-02-15T00:48:31;19.80;65.20
18412;DHT22;27097;51.738;19.472;2023-02-15T00:50:59;19.80;64.70
18412;DHT22;27097;51.738;19.472;2023-02-15T00:53:28;19.80;65.00
18412;DHT22;27097;51.738;19.472;2023-02-15T00:55:56;19.80;64.70
18412;DHT22;27097;51.738;19.472;2023-02-15T00:58:23;19.70;64.70
18412;DHT22;27097;51.738;19.472;2023-02-15T01:00:50;19.70;64.10
18412;DHT22;27097;51.738;19.472;2023-02-15T01:03:18;19.70;64.60
18412;DHT22;27097;51.738;19.472;2023-02-15T01:05:47;19.70;67.10
18412;DHT22;27097;51.738;19.472;2023-02-15T01:08:14;19.80;74.00
18412;DHT22;27097;51.738;19.472;2023-02-15T01:10:43;19.80;77.30
18412;DHT22;27097;51.738;19.472;2023-02-15T01:13:13;19.80;79.70
18412;DHT22;27097;51.738;19.472;2023-02-15T01:15:40;19.80;81.00
18412;DHT22;27097;51.738;19.472;2023-02-15T01:18:06;19.80;82.20
18412;DHT22;27097;51.738;19.472;2023-02-15T01:20:35;19.80;82.10
18412;DHT22;27097;51.738;19.472;2023-02-15T01:23:04;19.80;82.90
18412;DHT22;27097;51.738;19.472;2023-02-15T01:25:33;19.80;83.20
18412;DHT22;27097;51.738;19.472;2023-02-15T01:28:02;19.90;84.10
18412;DHT22;27097;51.738;19.472;2023-02-15T01:30:29;19.80;83.90
18412;DHT22;27097;51.738;19.472;2023-02-15T01:32:56;19.80;83.80
18412;DHT22;27097;51.738;19.472;2023-02-15T01:35:24;19.90;83.90
18412;DHT22;27097;51.738;19.472;2023-02-15T01:37:51;19.90;84.80
18412;DHT22;27097;51.738;19.472;2023-02-15T01:40:18;19.90;84.90
18412;DHT22;27097;51.738;19.472;2023-02-15T01:42:49;19.80;85.00
18412;DHT22;27097;51.738;19.472;2023-02-15T01:45:21;19.90;85.20
18412;DHT22;27097;51.738;19.472;2023-02-15T01:47:56;19.90;85.70
18412;DHT22;27097;51.738;19.472;2023-02-15T01:50:28;19.90;85.30
18412;DHT22;27097;51.738;19.472;2023-02-15T01:53:01;19.90;85.60
18412;DHT22;27097;51.738;19.472;2023-02-15T01:55:33;19.90;85.70
18412;DHT22;27097;51.738;19.472;2023-02-15T01:58:02;19.90;85.20
18412;DHT22;27097;51.738;19.472;2023-02-15T02:00:31;19.90;85.70
18412;DHT22;27097;51.738;19.472;2023-02-15T02:03:00;19.90;86.00
18412;DHT22;27097;51.738;19.472;2023-02-15T02:05:29;19.90;85.80
18412;DHT22;27097;51.738;19.472;2023-02-15T02:07:58;19.90;85.60
18412;DHT22;27097;51.738;19.472;2023-02-15T02:10:27;19.90;85.70
18412;DHT22;27097;51.738;19.472;2023-02-15T02:13:00;19.90;86.50
18412;DHT22;27097;51.738;19.472;2023-02-15T02:15:37;19.90;85.40
18412;DHT22;27097;51.738;19.472;2023-02-15T02:18:15;19.90;85.30
18412;DHT22;27097;51.738;19.472;2023-02-15T02:24:01;19.90;86.20
18412;DHT22;27097;51.738;19.472;2023-02-15T02:27:02;19.90;86.00
18412;DHT22;27097;51.738;19.472;2023-02-15T02:29:58;19.90;86.00
18412;DHT22;27097;51.738;19.472;2023-02-15T02:32:48;19.90;85.70
18412;DHT22;27097;51.738;19.472;2023-02-15T02:35:19;20.00;85.90
18412;DHT22;27097;51.738;19.472;2023-02-15T02:37:55;19.90;85.70
18412;DHT22;27097;51.738;19.472;2023-02-15T02:40:31;19.90;85.20
18412;DHT22;27097;51.738;19.472;2023-02-15T02:43:04;19.90;85.70
18412;DHT22;27097;51.738;19.472;2023-02-15T02:45:40;20.00;85.90
18412;DHT22;27097;51.738;19.472;2023-02-15T02:48:15;20.00;85.40
18412;DHT22;27097;51.738;19.472;2023-02-15T02:50:42;20.00;85.40
18412;DHT22;27097;51.738;19.472;2023-02-15T02:53:10;20.00;85.40
18412;DHT22;27097;51.738;19.472;2023-02-15T02:55:41;20.00;85.20
18412;DHT22;27097;51.738;19.472;2023-02-15T02:58:13;20.00;85.40
18412;DHT22;27097;51.738;19.472;2023-02-15T03:00:45;20.00;84.70
18412;DHT22;27097;51.738;19.472;2023-02-15T03:03:18;20.00;84.70
18412;DHT22;27097;51.738;19.472;2023-02-15T03:05:48;20.00;85.20
18412;DHT22;27097;51.738;19.472;2023-02-15T03:08:18;20.00;84.90
18412;DHT22;27097;51.738;19.472;2023-02-15T03:10:48;20.00;85.10
18412;DHT22;27097;51.738;19.472;2023-02-15T03:13:17;20.00;85.20
18412;DHT22;27097;51.738;19.472;2023-02-15T03:15:45;20.00;84.90
18412;DHT22;27097;51.738;19.472;2023-02-15T03:18:35;20.00;84.10
18412;DHT22;27097;51.738;19.472;2023-02-15T03:21:04;20.00;84.90
18412;DHT22;27097;51.738;19.472;2023-02-15T03:23:32;20.00;84.50
18412;DHT22;27097;51.738;19.472;2023-02-15T03:26:02;20.00;84.70
18412;DHT22;27097;51.738;19.472;2023-02-15T03:28:33;20.00;85.10
18412;DHT22;27097;51.738;19.472;2023-02-15T03:31:04;20.00;84.80
18412;DHT22;27097;51.738;19.472;2023-02-15T03:33:36;20.00;85.10
18412;DHT22;27097;51.738;19.472;2023-02-15T03:36:11;20.00;84.00
18412;DHT22;27097;51.738;19.472;2023-02-15T03:38:49;20.00;85.00
18412;DHT22;27097;51.738;19.472;2023-02-15T03:41:19;20.00;84.90
18412;DHT22;27097;51.738;19.472;2023-02-15T03:43:51;20.00;84.90
18412;DHT22;27097;51.738;19.472;2023-02-15T03:46:22;20.00;84.90
18412;DHT22;27097;51.738;19.472;2023-02-15T03:48:55;20.00;84.20
18412;DHT22;27097;51.738;19.472;2023-02-15T03:51:26;20.00;84.80
18412;DHT22;27097;51.738;19.472;2023-02-15T03:54:03;20.00;84.90
18412;DHT22;27097;51.738;19.472;2023-02-15T03:56:31;20.00;84.70
18412;DHT22;27097;51.738;19.472;2023-02-15T03:58:59;20.00;84.90
18412;DHT22;27097;51.738;19.472;2023-02-15T04:01:49;20.00;84.80
18412;DHT22;27097;51.738;19.472;2023-02-15T04:04:33;20.00;84.60
18412;DHT22;27097;51.738;19.472;2023-02-15T04:07:01;20.00;83.90
18412;DHT22;27097;51.738;19.472;2023-02-15T04:09:28;20.00;84.70
18412;DHT22;27097;51.738;19.472;2023-02-15T04:12:14;20.00;84.40
18412;DHT22;27097;51.738;19.472;2023-02-15T04:14:41;20.00;84.30
18412;DHT22;27097;51.738;19.472;2023-02-15T04:17:25;20.00;84.50
18412;DHT22;27097;51.738;19.472;2023-02-15T04:19:53;20.00;84.80
18412;DHT22;27097;51.738;19.472;2023-02-15T04:22:38;20.00;84.50
18412;DHT22;27097;51.738;19.472;2023-02-15T04:25:22;20.00;84.70
18412;DHT22;27097;51.738;19.472;2023-02-15T04:27:51;20.00;84.10
18412;DHT22;27097;51.738;19.472;2023-02-15T04:30:20;20.00;84.80
18412;DHT22;27097;51.738;19.472;2023-02-15T04:32:50;20.00;84.30
18412;DHT22;27097;51.738;19.472;2023-02-15T04:35:18;20.00;83.80
18412;DHT22;27097;51.738;19.472;2023-02-15T04:37:45;20.00;84.00
18412;DHT22;27097;51.738;19.472;2023-02-15T04:40:14;20.00;84.20
18412;DHT22;27097;51.738;19.472;2023-02-15T04:42:41;20.00;84.40
18412;DHT22;27097;51.738;19.472;2023-02-15T04:45:08;20.00;84.40
18412;DHT22;27097;51.738;19.472;2023-02-15T04:47:35;20.00;84.20
18412;DHT22;27097;51.738;19.472;2023-02-15T04:50:02;20.00;84.40
18412;DHT22;27097;51.738;19.472;2023-02-15T04:52:30;20.00;83.90
18412;DHT22;27097;51.738;19.472;2023-02-15T04:54:57;20.00;83.30
18412;DHT22;27097;51.738;19.472;2023-02-15T04:57:24;20.00;84.00
18412;DHT22;27097;51.738;19.472;2023-02-15T04:59:51;20.00;84.00
18412;DHT22;27097;51.738;19.472;2023-02-15T05:02:18;20.00;83.90
18412;DHT22;27097;51.738;19.472;2023-02-15T05:04:45;20.00;83.80
18412;DHT22;27097;51.738;19.472;2023-02-15T05:07:12;20.00;83.50
18412;DHT22;27097;51.738;19.472;2023-02-15T05:09:41;20.00;84.10
18412;DHT22;27097;51.738;19.472;2023-02-15T05:12:08;20.00;83.90
18412;DHT22;27097;51.738;19.472;2023-02-15T05:14:35;20.00;83.80
18412;DHT22;27097;51.738;19.472;2023-02-15T05:17:02;20.00;84.10
18412;DHT22;27097;51.738;19.472;2023-02-15T05:19:30;20.00;83.90
18412;DHT22;27097;51.738;19.472;2023-02-15T05:21:58;20.00;83.90
18412;DHT22;27097;51.738;19.472;2023-02-15T05:24:25;20.00;84.00
18412;DHT22;27097;51.738;19.472;2023-02-15T05:27:12;20.00;83.80
18412;DHT22;27097;51.738;19.472;2023-02-15T05:29:56;20.00;83.60
18412;DHT22;27097;51.738;19.472;2023-02-15T05:32:23;20.00;83.90
18412;DHT22;27097;51.738;19.472;2023-02-15T05:34:50;20.00;83.90
18412;DHT22;27097;51.738;19.472;2023-02-15T05:37:17;20.00;83.80
18412;DHT22;27097;51.738;19.472;2023-02-15T05:39:44;20.00;84.10
18412;DHT22;27097;51.738;19.472;2023-02-15T05:42:12;20.00;83.90
18412;DHT22;27097;51.738;19.472;2023-02-15T05:44:39;20.00;84.70
18412;DHT22;27097;51.738;19.472;2023-02-15T05:47:06;20.00;83.90
18412;DHT22;27097;51.738;19.472;2023-02-15T05:49:33;20.00;78.00
18412;DHT22;27097;51.738;19.472;2023-02-15T05:52:00;20.00;80.40
18412;DHT22;27097;51.738;19.472;2023-02-15T05:54:28;20.00;79.40
18412;DHT22;27097;51.738;19.472;2023-02-15T05:56:55;20.00;80.90
18412;DHT22;27097;51.738;19.472;2023-02-15T05:59:23;20.00;81.10
18412;DHT22;27097;51.738;19.472;2023-02-15T06:01:50;20.00;80.60
18412;DHT22;27097;51.738;19.472;2023-02-15T06:04:17;20.00;80.30
18412;DHT22;27097;51.738;19.472;2023-02-15T06:06:44;20.00;80.10
18412;DHT22;27097;51.738;19.472;2023-02-15T06:09:12;20.00;79.50
18412;DHT22;27097;51.738;19.472;2023-02-15T06:11:39;20.00;79.40
18412;DHT22;27097;51.738;19.472;2023-02-15T06:14:06;20.00;78.60
18412;DHT22;27097;51.738;19.472;2023-02-15T06:16:34;20.00;78.20
18412;DHT22;27097;51.738;19.472;2023-02-15T06:19:01;20.00;77.90
18412;DHT22;27097;51.738;19.472;2023-02-15T06:21:29;20.00;77.80
18412;DHT22;27097;51.738;19.472;2023-02-15T06:23:56;20.00;77.60
18412;DHT22;27097;51.738;19.472;2023-02-15T06:26:23;20.00;77.30
18412;DHT22;27097;51.738;19.472;2023-02-15T06:28:50;20.00;76.80
18412;DHT22;27097;51.738;19.472;2023-02-15T06:31:16;20.00;76.80
18412;DHT22;27097;51.738;19.472;2023-02-15T06:33:45;20.00;77.60
18412;DHT22;27097;51.738;19.472;2023-02-15T06:36:11;20.00;77.00
18412;DHT22;27097;51.738;19.472;2023-02-15T06:38:38;20.00;76.70
18412;DHT22;27097;51.738;19.472;2023-02-15T06:41:05;20.00;77.20
18412;DHT22;27097;51.738;19.472;2023-02-15T06:43:32;20.00;77.70
18412;DHT22;27097;51.738;19.472;2023-02-15T06:45:59;20.00;77.70
18412;DHT22;27097;51.738;19.472;2023-02-15T06:48:26;19.90;77.20
18412;DHT22;27097;51.738;19.472;2023-02-15T06:50:55;19.90;75.90
18412;DHT22;27097;51.738;19.472;2023-02-15T06:53:22;19.90;75.40
18412;DHT22;27097;51.738;19.472;2023-02-15T06:55:49;19.90;71.80
18412;DHT22;27097;51.738;19.472;2023-02-15T06:58:16;19.90;70.80
18412;DHT22;27097;51.738;19.472;2023-02-15T07:00:43;19.90;69.70
18412;DHT22;27097;51.738;19.472;2023-02-15T07:03:13;19.90;72.90
18412;DHT22;27097;51.738;19.472;2023-02-15T07:05:41;19.90;73.70
18412;DHT22;27097;51.738;19.472;2023-02-15T07:08:10;19.90;74.30
18412;DHT22;27097;51.738;19.472;2023-02-15T07:10:37;19.90;74.20
18412;DHT22;27097;51.738;19.472;2023-02-15T07:13:04;19.90;74.00
18412;DHT22;27097;51.738;19.472;2023-02-15T07:15:30;19.90;71.20
18412;DHT22;27097;51.738;19.472;2023-02-15T07:17:57;19.90;70.60
18412;DHT22;27097;51.738;19.472;2023-02-15T07:20:24;19.80;70.60
18412;DHT22;27097;51.738;19.472;2023-02-15T07:22:51;19.80;72.80
18412;DHT22;27097;51.738;19.472;2023-02-15T07:25:19;19.90;74.10
18412;DHT22;27097;51.738;19.472;2023-02-15T07:27:46;19.80;73.00
18412;DHT22;27097;51.738;19.472;2023-02-15T07:30:15;19.80;72.40
18412;DHT22;27097;51.738;19.472;2023-02-15T07:32:42;19.80;72.30
18412;DHT22;27097;51.738;19.472;2023-02-15T07:35:23;19.90;72.50
18412;DHT22;27097;51.738;19.472;2023-02-15T07:37:50;19.90;73.00
18412;DHT22;27097;51.738;19.472;2023-02-15T07:40:20;19.90;72.80
18412;DHT22;27097;51.738;19.472;2023-02-15T07:42:49;19.90;73.20
18412;DHT22;27097;51.738;19.472;2023-02-15T07:45:17;19.80;72.80
18412;DHT22;27097;51.738;19.472;2023-02-15T07:47:44;19.90;72.10
18412;DHT22;27097;51.738;19.472;2023-02-15T07:50:11;19.90;72.80
18412;DHT22;27097;51.738;19.472;2023-02-15T07:52:38;19.90;70.60
18412;DHT22;27097;51.738;19.472;2023-02-15T07:55:05;19.90;70.00
18412;DHT22;27097;51.738;19.472;2023-02-15T07:57:35;19.80;72.00
18412;DHT22;27097;51.738;19.472;2023-02-15T08:00:03;19.80;69.20
18412;DHT22;27097;51.738;19.472;2023-02-15T08:02:29;19.80;69.50
18412;DHT22;27097;51.738;19.472;2023-02-15T08:04:56;19.80;69.10
18412;DHT22;27097;51.738;19.472;2023-02-15T08:07:23;19.80;72.00
18412;DHT22;27097;51.738;19.472;2023-02-15T08:09:50;19.90;71.30
18412;DHT22;27097;51.738;19.472;2023-02-15T08:12:17;19.90;72.40
18412;DHT22;27097;51.738;19.472;2023-02-15T08:14:45;19.80;72.90
18412;DHT22;27097;51.738;19.472;2023-02-15T08:17:12;19.90;72.50
18412;DHT22;27097;51.738;19.472;2023-02-15T08:19:39;19.90;73.20
18412;DHT22;27097;51.738;19.472;2023-02-15T08:22:06;19.90;72.90
18412;DHT22;27097;51.738;19.472;2023-02-15T08:24:36;19.90;73.10
18412;DHT22;27097;51.738;19.472;2023-02-15T08:27:04;20.00;74.00
18412;DHT22;27097;51.738;19.472;2023-02-15T08:29:31;20.00;74.50
18412;DHT22;27097;51.738;19.472;2023-02-15T08:32:02;20.10;74.10
18412;DHT22;27097;51.738;19.472;2023-02-15T08:34:31;20.20;74.30
18412;DHT22;27097;51.738;19.472;2023-02-15T08:36:59;20.20;74.10
18412;DHT22;27097;51.738;19.472;2023-02-15T08:39:26;20.30;74.10
18412;DHT22;27097;51.738;19.472;2023-02-15T08:41:53;20.30;73.90
18412;DHT22;27097;51.738;19.472;2023-02-15T08:44:21;20.40;73.60
18412;DHT22;27097;51.738;19.472;2023-02-15T08:46:49;20.50;73.80
18412;DHT22;27097;51.738;19.472;2023-02-15T08:49:20;20.50;73.90
18412;DHT22;27097;51.738;19.472;2023-02-15T08:51:48;20.60;73.70
18412;DHT22;27097;51.738;19.472;2023-02-15T08:54:17;20.60;73.20
18412;DHT22;27097;51.738;19.472;2023-02-15T08:56:44;20.60;72.80
18412;DHT22;27097;51.738;19.472;2023-02-15T08:59:13;20.70;71.80
18412;DHT22;27097;51.738;19.472;2023-02-15T09:01:41;20.70;71.20
18412;DHT22;27097;51.738;19.472;2023-02-15T09:04:09;20.70;71.60
18412;DHT22;27097;51.738;19.472;2023-02-15T09:06:38;20.70;71.30
18412;DHT22;27097;51.738;19.472;2023-02-15T09:09:05;20.80;70.70
18412;DHT22;27097;51.738;19.472;2023-02-15T09:11:37;20.80;69.60
18412;DHT22;27097;51.738;19.472;2023-02-15T09:14:06;20.80;70.40
18412;DHT22;27097;51.738;19.472;2023-02-15T09:16:35;20.80;70.60
18412;DHT22;27097;51.738;19.472;2023-02-15T09:19:03;20.90;70.80
18412;DHT22;27097;51.738;19.472;2023-02-15T09:21:31;20.90;71.00
18412;DHT22;27097;51.738;19.472;2023-02-15T09:24:01;20.90;70.70
18412;DHT22;27097;51.738;19.472;2023-02-15T09:26:30;20.90;69.80
18412;DHT22;27097;51.738;19.472;2023-02-15T09:28:59;20.90;67.40
18412;DHT22;27097;51.738;19.472;2023-02-15T09:31:28;21.00;69.60
18412;DHT22;27097;51.738;19.472;2023-02-15T09:33:56;21.00;69.70
18412;DHT22;27097;51.738;19.472;2023-02-15T09:36:27;21.00;69.60
18412;DHT22;27097;51.738;19.472;2023-02-15T09:38:56;21.00;69.40
18412;DHT22;27097;51.738;19.472;2023-02-15T09:42:04;21.00;69.30
18412;DHT22;27097;51.738;19.472;2023-02-15T09:44:47;21.10;68.80
18412;DHT22;27097;51.738;19.472;2023-02-15T09:47:27;21.10;68.30
18412;DHT22;27097;51.738;19.472;2023-02-15T09:50:06;21.10;68.20
18412;DHT22;27097;51.738;19.472;2023-02-15T09:52:49;21.10;68.10
18412;DHT22;27097;51.738;19.472;2023-02-15T09:55:39;21.10;67.80
18412;DHT22;27097;51.738;19.472;2023-02-15T09:58:16;21.10;67.70
18412;DHT22;27097;51.738;19.472;2023-02-15T10:00:52;21.10;67.60
18412;DHT22;27097;51.738;19.472;2023-02-15T10:03:30;21.10;68.10
18412;DHT22;27097;51.738;19.472;2023-02-15T10:06:27;21.10;67.80
18412;DHT22;27097;51.738;19.472;2023-02-15T10:09:03;21.10;67.10
18412;DHT22;27097;51.738;19.472;2023-02-15T10:11:44;21.10;68.30
18412;DHT22;27097;51.738;19.472;2023-02-15T10:14:37;21.10;68.70
18412;DHT22;27097;51.738;19.472;2023-02-15T10:17:21;21.10;69.10
18412;DHT22;27097;51.738;19.472;2023-02-15T10:19:58;21.10;69.70
18412;DHT22;27097;51.738;19.472;2023-02-15T10:22:38;21.10;70.30
18412;DHT22;27097;51.738;19.472;2023-02-15T10:25:24;21.10;70.90
18412;DHT22;27097;51.738;19.472;2023-02-15T10:28:00;21.10;71.30
18412;DHT22;27097;51.738;19.472;2023-02-15T10:30:39;21.10;71.70
18412;DHT22;27097;51.738;19.472;2023-02-15T10:33:18;21.10;71.60
18412;DHT22;27097;51.738;19.472;2023-02-15T10:35:52;21.10;70.80
18412;DHT22;27097;51.738;19.472;2023-02-15T10:38:27;21.10;71.60
18412;DHT22;27097;51.738;19.472;2023-02-15T10:41:06;21.10;72.40
18412;DHT22;27097;51.738;19.472;2023-02-15T10:43:54;21.00;74.00
18412;DHT22;27097;51.738;19.472;2023-02-15T10:46:43;21.00;74.90
18412;DHT22;27097;51.738;19.472;2023-02-15T10:49:37;21.00;76.70
18412;DHT22;27097;51.738;19.472;2023-02-15T10:52:17;21.10;76.80
18412;DHT22;27097;51.738;19.472;2023-02-15T10:54:51;21.10;77.50
18412;DHT22;27097;51.738;19.472;2023-02-15T10:57:26;21.10;77.20
18412;DHT22;27097;51.738;19.472;2023-02-15T11:00:05;21.10;76.00
18412;DHT22;27097;51.738;19.472;2023-02-15T11:02:46;21.10;77.20
18412;DHT22;27097;51.738;19.472;2023-02-15T11:05:26;21.10;77.90
18412;DHT22;27097;51.738;19.472;2023-02-15T11:07:58;21.10;77.80
18412;DHT22;27097;51.738;19.472;2023-02-15T11:10:30;21.20;77.90
18412;DHT22;27097;51.738;19.472;2023-02-15T11:13:04;21.20;78.10
18412;DHT22;27097;51.738;19.472;2023-02-15T11:15:34;21.20;78.80
18412;DHT22;27097;51.738;19.472;2023-02-15T11:18:06;21.20;79.00
18412;DHT22;27097;51.738;19.472;2023-02-15T11:20:38;21.20;78.80
18412;DHT22;27097;51.738;19.472;2023-02-15T11:23:13;21.20;78.60
18412;DHT22;27097;51.738;19.472;2023-02-15T11:25:43;21.20;77.90
18412;DHT22;27097;51.738;19.472;2023-02-15T11:28:18;21.30;80.20
18412;DHT22;27097;51.738;19.472;2023-02-15T11:30:49;21.30;79.40
18412;DHT22;27097;51.738;19.472;2023-02-15T11:33:21;21.30;79.80
18412;DHT22;27097;51.738;19.472;2023-02-15T11:35:53;21.30;79.60
18412;DHT22;27097;51.738;19.472;2023-02-15T11:38:24;21.30;79.20
18412;DHT22;27097;51.738;19.472;2023-02-15T11:40:57;21.30;79.80
18412;DHT22;27097;51.738;19.472;2023-02-15T11:43:29;21.30;79.90
18412;DHT22;27097;51.738;19.472;2023-02-15T11:45:57;21.30;79.80
18412;DHT22;27097;51.738;19.472;2023-02-15T11:48:26;21.30;79.80
18412;DHT22;27097;51.738;19.472;2023-02-15T11:50:56;21.30;78.40
18412;DHT22;27097;51.738;19.472;2023-02-15T11:53:23;21.30;79.90
18412;DHT22;27097;51.738;19.472;2023-02-15T11:55:53;21.30;79.80
18412;DHT22;27097;51.738;19.472;2023-02-15T11:58:28;21.30;79.20
18412;DHT22;27097;51.738;19.472;2023-02-15T12:00:59;21.30;78.70
18412;DHT22;27097;51.738;19.472;2023-02-15T12:03:37;21.30;79.30
18412;DHT22;27097;51.738;19.472;2023-02-15T12:06:15;21.30;79.40
18412;DHT22;27097;51.738;19.472;2023-02-15T12:08:48;21.30;79.60
18412;DHT22;27097;51.738;19.472;2023-02-15T12:11:20;21.30;78.90
18412;DHT22;27097;51.738;19.472;2023-02-15T12:13:57;21.30;78.70
18412;DHT22;27097;51.738;19.472;2023-02-15T12:16:25;21.30;78.70
18412;DHT22;27097;51.738;19.472;2023-02-15T12:18:56;21.30;79.10
18412;DHT22;27097;51.738;19.472;2023-02-15T12:21:26;21.30;77.80
18412;DHT22;27097;51.738;19.472;2023-02-15T12:23:58;21.40;77.50
18412;DHT22;27097;51.738;19.472;2023-02-15T12:26:28;21.30;78.50
18412;DHT22;27097;51.738;19.472;2023-02-15T12:28:57;21.40;78.10
18412;DHT22;27097;51.738;19.472;2023-02-15T12:31:30;21.40;78.00
18412;DHT22;27097;51.738;19.472;2023-02-15T12:34:02;21.40;78.20
18412;DHT22;27097;51.738;19.472;2023-02-15T12:36:32;21.40;78.50
18412;DHT22;27097;51.738;19.472;2023-02-15T12:39:14;21.40;78.40
18412;DHT22;27097;51.738;19.472;2023-02-15T12:41:45;21.40;78.40
18412;DHT22;27097;51.738;19.472;2023-02-15T12:44:17;21.40;78.30
18412;DHT22;27097;51.738;19.472;2023-02-15T12:46:56;21.40;78.40
18412;DHT22;27097;51.738;19.472;2023-02-15T12:49:25;21.40;77.00
18412;DHT22;27097;51.738;19.472;2023-02-15T12:51:54;21.40;77.50
18412;DHT22;27097;51.738;19.472;2023-02-15T12:54:33;21.40;77.80
18412;DHT22;27097;51.738;19.472;2023-02-15T12:59:56;21.30;76.60
18412;DHT22;27097;51.738;19.472;2023-02-15T13:02:27;21.30;77.60
18412;DHT22;27097;51.738;19.472;2023-02-15T13:04:57;21.30;77.50
18412;DHT22;27097;51.738;19.472;2023-02-15T13:07:30;21.30;77.90
18412;DHT22;27097;51.738;19.472;2023-02-15T13:09:58;21.30;77.10
18412;DHT22;27097;51.738;19.472;2023-02-15T13:12:27;21.30;76.60
18412;DHT22;27097;51.738;19.472;2023-02-15T13:14:57;21.30;76.30
18412;DHT22;27097;51.738;19.472;2023-02-15T13:17:26;21.30;74.80
18412;DHT22;27097;51.738;19.472;2023-02-15T13:19:59;21.30;73.80
18412;DHT22;27097;51.738;19.472;2023-02-15T13:22:33;21.20;74.80
18412;DHT22;27097;51.738;19.472;2023-02-15T13:25:04;21.20;75.00
18412;DHT22;27097;51.738;19.472;2023-02-15T13:27:36;21.20;74.70
18412;DHT22;27097;51.738;19.472;2023-02-15T13:30:23;21.20;75.00
18412;DHT22;27097;51.738;19.472;2023-02-15T13:32:54;21.20;75.00
18412;DHT22;27097;51.738;19.472;2023-02-15T13:35:25;21.20;75.00
18412;DHT22;27097;51.738;19.472;2023-02-15T13:38:06;21.20;75.70
18412;DHT22;27097;51.738;19.472;2023-02-15T13:40:37;21.20;75.40
18412;DHT22;27097;51.738;19.472;2023-02-15T13:43:19;21.20;75.60
18412;DHT22;27097;51.738;19.472;2023-02-15T13:46:04;21.20;75.00
18412;DHT22;27097;51.738;19.472;2023-02-15T13:48:41;21.20;75.30
18412;DHT22;27097;51.738;19.472;2023-02-15T13:51:15;21.20;74.60
18412;DHT22;27097;51.738;19.472;2023-02-15T13:54:20;21.20;75.30
18412;DHT22;27097;51.738;19.472;2023-02-15T13:56:59;21.20;75.00
18412;DHT22;27097;51.738;19.472;2023-02-15T13:59:38;21.30;74.90
18412;DHT22;27097;51.738;19.472;2023-02-15T14:02:42;21.30;75.30
18412;DHT22;27097;51.738;19.472;2023-02-15T14:05:28;21.30;74.80
18412;DHT22;27097;51.738;19.472;2023-02-15T14:08:04;21.20;72.30
18412;DHT22;27097;51.738;19.472;2023-02-15T14:10:51;21.30;73.50
18412;DHT22;27097;51.738;19.472;2023-02-15T14:13:49;21.30;73.70
18412;DHT22;27097;51.738;19.472;2023-02-15T14:16:25;21.30;73.60
18412;DHT22;27097;51.738;19.472;2023-02-15T14:19:03;21.30;74.40
18412;DHT22;27097;51.738;19.472;2023-02-15T14:21:37;21.30;75.20
18412;DHT22;27097;51.738;19.472;2023-02-15T14:24:20;21.30;76.00
18412;DHT22;27097;51.738;19.472;2023-02-15T14:26:53;21.30;74.10
18412;DHT22;27097;51.738;19.472;2023-02-15T14:29:28;21.20;76.80
18412;DHT22;27097;51.738;19.472;2023-02-15T14:32:02;21.20;77.30
18412;DHT22;27097;51.738;19.472;2023-02-15T14:34:36;21.20;76.20
18412;DHT22;27097;51.738;19.472;2023-02-15T14:37:09;21.10;76.70
18412;DHT22;27097;51.738;19.472;2023-02-15T14:39:44;21.10;75.50
18412;DHT22;27097;51.738;19.472;2023-02-15T14:42:36;21.10;73.80
18412;DHT22;27097;51.738;19.472;2023-02-15T14:45:15;21.20;72.30
18412;DHT22;27097;51.738;19.472;2023-02-15T14:47:48;21.20;71.80
18412;DHT22;27097;51.738;19.472;2023-02-15T14:50:40;21.30;70.90
18412;DHT22;27097;51.738;19.472;2023-02-15T14:53:34;21.30;72.10
18412;DHT22;27097;51.738;19.472;2023-02-15T14:56:17;21.30;71.10
18412;DHT22;27097;51.738;19.472;2023-02-15T14:59:14;21.30;71.80
18412;DHT22;27097;51.738;19.472;2023-02-15T15:01:42;21.30;71.50
18412;DHT22;27097;51.738;19.472;2023-02-15T15:04:11;21.40;72.20
18412;DHT22;27097;51.738;19.472;2023-02-15T15:06:42;21.40;72.50
18412;DHT22;27097;51.738;19.472;2023-02-15T15:09:12;21.40;72.10
18412;DHT22;27097;51.738;19.472;2023-02-15T15:11:45;21.40;72.70
18412;DHT22;27097;51.738;19.472;2023-02-15T15:14:38;21.40;72.70
18412;DHT22;27097;51.738;19.472;2023-02-15T15:17:08;21.40;72.50
18412;DHT22;27097;51.738;19.472;2023-02-15T15:20:11;21.50;72.80
18412;DHT22;27097;51.738;19.472;2023-02-15T15:22:40;21.50;72.70
18412;DHT22;27097;51.738;19.472;2023-02-15T15:25:12;21.50;72.70
18412;DHT22;27097;51.738;19.472;2023-02-15T15:28:01;21.50;72.90
18412;DHT22;27097;51.738;19.472;2023-02-15T15:33:57;21.50;73.00
18412;DHT22;27097;51.738;19.472;2023-02-15T15:42:51;21.50;72.70
18412;DHT22;27097;51.738;19.472;2023-02-15T15:45:52;21.50;73.00
18412;DHT22;27097;51.738;19.472;2023-02-15T15:48:29;21.50;72.30
18412;DHT22;27097;51.738;19.472;2023-02-15T15:50:58;21.50;72.80
18412;DHT22;27097;51.738;19.472;2023-02-15T15:53:28;21.60;73.00
18412;DHT22;27097;51.738;19.472;2023-02-15T15:56:00;21.50;72.70
18412;DHT22;27097;51.738;19.472;2023-02-15T15:58:28;21.60;72.90
18412;DHT22;27097;51.738;19.472;2023-02-15T16:01:01;21.60;72.80
18412;DHT22;27097;51.738;19.472;2023-02-15T16:03:30;21.60;73.20